createdAt,value
2022-12-08T00:01:21.746Z,25.58
2022-12-08T00:03:48.875Z,24.27
2022-12-08T00:06:47.058Z,23.88
2022-12-08T00:09:29.126Z,25.07
2022-12-08T00:11:59.834Z,24.37
2022-12-08T00:14:35.894Z,23.85
2022-12-08T00:17:04.418Z,23.78
2022-12-08T00:19:33.111Z,23.25
2022-12-08T00:22:00.034Z,23.25
2022-12-08T00:24:33.418Z,23.14
2022-12-08T00:27:00.384Z,23.10
2022-12-08T00:29:27.571Z,22.93
2022-12-08T00:31:54.461Z,23.12
2022-12-08T00:34:21.391Z,24.84
2022-12-08T00:36:48.945Z,24.30
2022-12-08T00:39:17.889Z,24.96
2022-12-08T00:42:03.584Z,25.88
2022-12-08T00:44:30.334Z,28.51
2022-12-08T00:46:57.304Z,27.77
2022-12-08T00:49:24.049Z,24.13
2022-12-08T00:51:50.904Z,24.40
2022-12-08T00:54:19.047Z,24.09
2022-12-08T00:56:46.545Z,25.28
2022-12-08T00:59:14.418Z,24.13
2022-12-08T01:01:41.606Z,24.06
2022-12-08T01:04:11.910Z,24.34
2022-12-08T01:06:39.418Z,25.35
2022-12-08T01:09:07.774Z,26.96
2022-12-08T01:11:36.152Z,26.22
2022-12-08T01:14:04.117Z,23.91
2022-12-08T01:16:34.294Z,25.00
2022-12-08T01:19:01.775Z,25.96
2022-12-08T01:21:29.308Z,25.02
2022-12-08T01:23:56.278Z,24.54
2022-12-08T01:26:23.025Z,23.74
2022-12-08T01:28:49.795Z,23.50
2022-12-08T01:31:21.370Z,23.38
2022-12-08T01:33:49.252Z,24.98
2022-12-08T01:36:25.177Z,25.28
2022-12-08T01:38:52.942Z,23.36
2022-12-08T01:41:22.758Z,23.79
2022-12-08T01:44:24.819Z,23.51
2022-12-08T01:46:53.684Z,22.83
2022-12-08T01:49:31.125Z,22.51
2022-12-08T01:52:25.790Z,22.48
2022-12-08T01:55:06.473Z,23.62
2022-12-08T01:57:55.872Z,22.66
2022-12-08T02:00:23.408Z,22.88
2022-12-08T02:02:56.588Z,22.49
2022-12-08T02:05:30.733Z,24.86
2022-12-08T02:07:58.762Z,24.88
2022-12-08T02:10:29.492Z,24.71
2022-12-08T02:12:58.357Z,23.94
2022-12-08T02:15:37.012Z,25.26
2022-12-08T02:18:28.184Z,23.32
2022-12-08T02:20:57.745Z,24.17
2022-12-08T02:23:33.901Z,23.70
2022-12-08T02:26:19.832Z,22.89
2022-12-08T02:29:08.231Z,22.96
2022-12-08T02:31:55.673Z,22.91
2022-12-08T02:34:40.320Z,23.70
2022-12-08T02:37:21.119Z,22.43
2022-12-08T02:40:07.249Z,22.05
2022-12-08T02:43:04.791Z,24.04
2022-12-08T02:46:02.456Z,23.33
2022-12-08T02:48:29.875Z,23.14
2022-12-08T02:50:56.618Z,23.24
2022-12-08T02:53:23.445Z,23.86
2022-12-08T02:56:01.618Z,23.57
2022-12-08T02:58:53.235Z,24.24
2022-12-08T03:02:05.900Z,26.39
2022-12-08T03:04:55.574Z,27.30
2022-12-08T03:07:40.358Z,24.45
2022-12-08T03:10:13.581Z,23.76
2022-12-08T03:12:58.349Z,24.11
2022-12-08T03:15:25.134Z,24.36
2022-12-08T03:17:56.933Z,23.84
2022-12-08T03:20:25.981Z,23.43
2022-12-08T03:22:55.917Z,24.25
2022-12-08T03:25:25.988Z,23.13
2022-12-08T03:27:53.864Z,23.70
2022-12-08T03:30:20.925Z,25.46
2022-12-08T03:33:04.316Z,23.33
2022-12-08T03:35:34.585Z,23.62
2022-12-08T03:38:10.829Z,22.93
2022-12-08T03:40:38.971Z,23.07
2022-12-08T03:43:06.337Z,23.21
2022-12-08T03:45:34.563Z,23.96
2022-12-08T03:48:01.449Z,24.70
2022-12-08T03:50:28.522Z,24.20
2022-12-08T03:52:55.325Z,24.12
2022-12-08T03:55:22.042Z,23.37
2022-12-08T03:57:49.633Z,22.66
2022-12-08T04:00:17.077Z,23.80
2022-12-08T04:02:44.095Z,23.45
2022-12-08T04:05:11.014Z,23.37
2022-12-08T04:07:37.907Z,23.22
2022-12-08T04:10:06.184Z,25.07
2022-12-08T04:12:33.166Z,23.91
2022-12-08T04:14:59.850Z,23.62
2022-12-08T04:17:26.618Z,23.49
2022-12-08T04:19:53.322Z,23.71
2022-12-08T04:22:21.366Z,22.92
2022-12-08T04:24:48.244Z,23.64
2022-12-08T04:27:14.968Z,23.46
2022-12-08T04:29:41.666Z,23.26
2022-12-08T04:32:08.285Z,23.71
2022-12-08T04:34:35.851Z,23.90
2022-12-08T04:37:02.579Z,23.06
2022-12-08T04:39:29.639Z,23.33
2022-12-08T04:41:56.379Z,23.47
2022-12-08T04:44:23.130Z,23.49
2022-12-08T04:46:50.067Z,24.37
2022-12-08T04:49:16.789Z,24.13
2022-12-08T04:51:43.533Z,24.38
2022-12-08T04:54:10.213Z,24.36
2022-12-08T04:56:37.090Z,24.42
2022-12-08T04:59:05.115Z,25.04
2022-12-08T05:01:32.173Z,24.84
2022-12-08T05:03:59.080Z,23.83
2022-12-08T05:06:25.945Z,23.74
2022-12-08T05:08:52.728Z,23.42
2022-12-08T05:11:20.243Z,25.28
2022-12-08T05:13:47.560Z,23.47
2022-12-08T05:16:15.967Z,23.84
2022-12-08T05:18:43.423Z,23.51
2022-12-08T05:21:10.578Z,23.14
2022-12-08T05:23:37.319Z,23.88
2022-12-08T05:26:05.540Z,24.70
2022-12-08T05:28:42.618Z,23.91
2022-12-08T05:31:11.753Z,23.81
2022-12-08T05:33:38.628Z,24.36
2022-12-08T05:36:06.908Z,23.55
2022-12-08T05:38:34.011Z,24.45
2022-12-08T05:41:00.717Z,24.49
2022-12-08T05:43:27.535Z,23.57
2022-12-08T05:45:54.341Z,23.48
2022-12-08T05:48:21.921Z,23.51
2022-12-08T05:50:50.748Z,25.41
2022-12-08T05:53:20.449Z,24.38
2022-12-08T05:55:47.804Z,24.21
2022-12-08T05:58:20.921Z,24.73
2022-12-08T06:00:48.886Z,25.47
2022-12-08T06:03:17.994Z,24.31
2022-12-08T06:05:46.306Z,24.42
2022-12-08T06:08:13.646Z,24.21
2022-12-08T06:10:42.428Z,23.37
2022-12-08T06:13:09.174Z,24.52
2022-12-08T06:15:38.638Z,23.62
2022-12-08T06:18:07.153Z,24.32
2022-12-08T06:20:36.073Z,24.18
2022-12-08T06:23:03.870Z,24.02
2022-12-08T06:25:30.796Z,23.75
2022-12-08T06:27:57.533Z,24.33
2022-12-08T06:30:24.232Z,23.53
2022-12-08T06:32:51.076Z,23.89
2022-12-08T06:35:17.875Z,24.02
2022-12-08T06:37:44.565Z,23.86
2022-12-08T06:40:11.897Z,25.07
2022-12-08T06:42:44.233Z,23.71
2022-12-08T06:45:13.002Z,23.88
2022-12-08T06:47:40.148Z,23.72
2022-12-08T06:50:10.412Z,23.33
2022-12-08T06:52:44.067Z,24.97
2022-12-08T06:55:35.284Z,24.56
2022-12-08T06:58:00.940Z,24.67
2022-12-08T07:00:27.607Z,24.00
2022-12-08T07:02:54.460Z,24.94
2022-12-08T07:05:21.286Z,23.41
2022-12-08T07:07:48.028Z,24.17
2022-12-08T07:10:14.760Z,24.92
2022-12-08T07:12:41.425Z,24.09
2022-12-08T07:15:08.781Z,25.35
2022-12-08T07:17:36.186Z,26.46
2022-12-08T07:20:03.846Z,24.64
2022-12-08T07:22:30.906Z,23.08
2022-12-08T07:24:57.616Z,23.72
2022-12-08T07:27:24.418Z,22.82
2022-12-08T07:29:51.637Z,22.69
2022-12-08T07:32:18.378Z,22.33
2022-12-08T07:34:47.277Z,22.54
2022-12-08T07:37:14.294Z,24.85
2022-12-08T07:39:41.475Z,23.11
2022-12-08T07:42:08.578Z,23.02
2022-12-08T07:44:38.132Z,22.26
2022-12-08T07:47:05.117Z,24.99
2022-12-08T07:49:31.886Z,23.53
2022-12-08T07:51:58.705Z,22.47
2022-12-08T07:54:25.351Z,23.10
2022-12-08T07:56:52.882Z,22.48
2022-12-08T07:59:21.738Z,24.74
2022-12-08T08:02:05.076Z,24.74
2022-12-08T08:04:37.103Z,24.46
2022-12-08T08:07:03.871Z,22.54
2022-12-08T08:09:30.607Z,22.86
2022-12-08T08:12:28.899Z,23.63
2022-12-08T08:14:44.337Z,19.91
2022-12-08T08:17:11.741Z,22.74
2022-12-08T08:19:38.663Z,18.39
2022-12-08T08:22:05.406Z,21.12
2022-12-08T08:24:32.160Z,21.15
2022-12-08T08:26:58.961Z,18.81
2022-12-08T08:29:25.927Z,19.64
2022-12-08T08:31:53.639Z,17.59
2022-12-08T08:34:20.393Z,17.68
2022-12-08T08:36:47.293Z,19.77
2022-12-08T08:39:14.432Z,16.89
2022-12-08T08:41:41.690Z,16.64
2022-12-08T08:44:08.843Z,16.40
2022-12-08T08:46:35.681Z,16.83
2022-12-08T08:49:02.637Z,15.79
2022-12-08T08:51:29.368Z,18.43
2022-12-08T08:53:57.304Z,17.06
2022-12-08T08:56:24.326Z,17.40
2022-12-08T08:58:53.587Z,16.91
2022-12-08T09:01:24.781Z,18.22
2022-12-08T09:03:52.705Z,19.39
2022-12-08T09:06:20.482Z,17.97
2022-12-08T09:08:48.186Z,16.38
2022-12-08T09:11:15.410Z,16.86
2022-12-08T09:13:42.411Z,16.32
2022-12-08T09:16:11.105Z,18.26
2022-12-08T09:18:39.024Z,20.04
2022-12-08T09:21:09.013Z,19.00
2022-12-08T09:23:38.102Z,22.28
2022-12-08T09:26:05.743Z,17.69
2022-12-08T09:28:33.033Z,18.80
2022-12-08T09:31:00.302Z,18.19
2022-12-08T09:33:27.784Z,20.00
2022-12-08T09:35:54.698Z,19.51
2022-12-08T09:38:21.832Z,20.21
2022-12-08T09:40:53.381Z,21.09
2022-12-08T09:44:00.592Z,19.70
2022-12-08T09:46:30.656Z,20.08
2022-12-08T09:49:00.843Z,18.37
2022-12-08T09:51:33.925Z,18.07
2022-12-08T09:54:09.410Z,17.52
2022-12-08T09:56:38.553Z,16.84
2022-12-08T09:59:24.590Z,16.28
2022-12-08T10:01:52.067Z,15.41
2022-12-08T10:04:32.027Z,19.18
2022-12-08T10:07:21.020Z,15.41
2022-12-08T10:10:25.396Z,16.50
2022-12-08T10:13:11.685Z,15.69
2022-12-08T10:16:04.084Z,15.19
2022-12-08T10:18:33.059Z,14.42
2022-12-08T10:21:18.927Z,15.30
2022-12-08T10:23:52.288Z,15.52
2022-12-08T10:26:23.375Z,14.21
2022-12-08T10:28:51.122Z,16.59
2022-12-08T10:31:25.131Z,14.75
2022-12-08T10:34:13.660Z,17.47
2022-12-08T10:36:47.990Z,15.10
2022-12-08T10:39:33.259Z,14.71
2022-12-08T10:42:15.607Z,16.98
2022-12-08T10:44:57.340Z,16.13
2022-12-08T10:47:27.101Z,14.67
2022-12-08T10:50:21.227Z,14.86
2022-12-08T10:53:01.020Z,14.47
2022-12-08T10:55:29.725Z,13.57
2022-12-08T10:57:56.407Z,15.98
2022-12-08T11:00:28.476Z,14.63
2022-12-08T11:03:01.395Z,13.99
2022-12-08T11:05:34.952Z,15.17
2022-12-08T11:08:02.896Z,15.03
2022-12-08T11:10:44.831Z,17.94
2022-12-08T11:13:21.550Z,15.93
2022-12-08T11:15:49.468Z,17.02
2022-12-08T11:18:28.653Z,16.73
2022-12-08T11:20:59.818Z,18.22
2022-12-08T11:23:28.395Z,19.43
2022-12-08T11:26:02.837Z,18.76
2022-12-08T11:28:29.935Z,19.07
2022-12-08T11:31:07.849Z,20.59
2022-12-08T11:33:34.803Z,20.40
2022-12-08T11:36:12.915Z,18.71
2022-12-08T11:38:46.434Z,20.24
2022-12-08T11:41:17.970Z,20.17
2022-12-08T11:43:44.917Z,22.32
2022-12-08T11:46:25.341Z,20.44
2022-12-08T11:49:06.786Z,20.68
2022-12-08T11:51:38.185Z,17.33
2022-12-08T11:54:34.266Z,18.88
2022-12-08T11:57:03.153Z,21.28
2022-12-08T11:59:34.666Z,19.82
2022-12-08T12:02:04.769Z,20.18
2022-12-08T12:04:40.703Z,17.39
2022-12-08T12:07:26.644Z,18.40
2022-12-08T12:10:16.885Z,17.32
2022-12-08T12:13:05.401Z,17.74
2022-12-08T12:15:41.262Z,19.87
2022-12-08T12:18:30.341Z,19.58
2022-12-08T12:20:57.055Z,20.16
2022-12-08T12:23:38.481Z,21.92
2022-12-08T12:26:08.500Z,23.33
2022-12-08T12:28:58.075Z,20.21
2022-12-08T12:31:41.625Z,19.91
2022-12-08T12:34:14.708Z,23.27
2022-12-08T12:37:19.129Z,22.79
2022-12-08T12:39:52.402Z,25.58
2022-12-08T12:42:49.210Z,25.35
2022-12-08T12:45:22.231Z,25.67
2022-12-08T12:48:10.114Z,24.37
2022-12-08T12:50:46.942Z,24.42
2022-12-08T12:53:16.724Z,23.00
2022-12-08T12:55:46.625Z,22.63
2022-12-08T12:58:28.794Z,22.96
2022-12-08T13:01:08.799Z,23.96
2022-12-08T13:03:42.367Z,22.98
2022-12-08T13:06:15.094Z,22.35
2022-12-08T13:08:53.929Z,22.65
2022-12-08T13:11:26.152Z,22.60
2022-12-08T13:13:58.771Z,21.45
2022-12-08T13:16:28.819Z,20.83
2022-12-08T13:19:05.829Z,21.59
2022-12-08T13:21:38.702Z,20.54
2022-12-08T13:24:17.921Z,19.64
2022-12-08T13:27:03.767Z,19.91
2022-12-08T13:29:37.717Z,22.43
2022-12-08T13:32:04.472Z,19.63
2022-12-08T13:35:00.289Z,21.78
2022-12-08T13:37:53.972Z,19.80
2022-12-08T13:40:30.423Z,20.21
2022-12-08T13:43:28.245Z,20.84
2022-12-08T13:46:57.607Z,20.33
2022-12-08T13:50:31.285Z,19.37
2022-12-08T13:57:30.805Z,22.73
2022-12-08T14:00:14.828Z,22.95
2022-12-08T14:02:47.997Z,22.33
2022-12-08T14:05:34.865Z,22.09
2022-12-08T14:08:30.105Z,23.31
2022-12-08T14:11:05.268Z,21.61
2022-12-08T14:13:33.968Z,22.56
2022-12-08T14:16:00.946Z,23.40
2022-12-08T14:18:30.965Z,22.11
2022-12-08T14:21:21.369Z,24.15
2022-12-08T14:23:48.776Z,23.02
2022-12-08T14:26:15.947Z,22.67
2022-12-08T14:28:45.263Z,24.65
2022-12-08T14:31:14.762Z,21.98
2022-12-08T14:33:43.200Z,21.12
2022-12-08T14:36:14.602Z,23.71
2022-12-08T14:38:42.971Z,23.99
2022-12-08T14:41:12.552Z,22.79
2022-12-08T14:43:41.394Z,23.56
2022-12-08T14:46:22.709Z,23.30
2022-12-08T14:48:49.901Z,22.83
2022-12-08T14:51:19.323Z,23.44
2022-12-08T14:53:47.829Z,23.28
2022-12-08T14:56:23.235Z,24.63
2022-12-08T14:59:03.192Z,24.72
2022-12-08T15:01:31.100Z,23.75
2022-12-08T15:04:07.037Z,22.75
2022-12-08T15:06:34.042Z,22.38
2022-12-08T15:09:17.130Z,23.02
2022-12-08T15:11:44.040Z,22.66
2022-12-08T15:14:36.109Z,23.18
2022-12-08T15:17:03.774Z,22.54
2022-12-08T15:19:33.332Z,22.60
2022-12-08T15:22:19.673Z,22.82
2022-12-08T15:24:46.481Z,24.17
2022-12-08T15:27:21.704Z,23.31
2022-12-08T15:29:48.902Z,23.19
2022-12-08T15:32:23.960Z,23.39
2022-12-08T15:34:50.973Z,23.04
2022-12-08T15:37:22.597Z,23.43
2022-12-08T15:39:49.837Z,22.51
2022-12-08T15:42:16.784Z,22.32
2022-12-08T15:44:43.972Z,22.74
2022-12-08T15:47:16.767Z,23.72
2022-12-08T15:49:44.182Z,23.41
2022-12-08T15:52:28.985Z,22.83
2022-12-08T15:54:55.930Z,22.05
2022-12-08T15:58:10.934Z,22.03
2022-12-08T16:00:51.324Z,22.17
2022-12-08T16:07:12.470Z,22.30
2022-12-08T16:09:17.605Z,22.38
2022-12-08T16:12:07.267Z,22.01
2022-12-08T16:17:21.797Z,21.66
2022-12-08T16:19:49.582Z,21.94
2022-12-08T16:25:21.704Z,22.09
2022-12-08T16:28:12.301Z,22.14
2022-12-08T16:30:40.162Z,22.83
2022-12-08T16:33:07.063Z,21.75
2022-12-08T16:35:34.101Z,21.83
2022-12-08T16:38:01.109Z,22.39
2022-12-08T16:40:29.151Z,22.08
2022-12-08T16:42:55.898Z,21.74
2022-12-08T16:45:25.470Z,22.13
2022-12-08T16:48:00.646Z,22.31
2022-12-08T16:50:30.934Z,22.65
2022-12-08T16:53:06.979Z,22.04
2022-12-08T16:55:34.497Z,22.64
2022-12-08T16:58:02.709Z,22.48
2022-12-08T17:00:30.990Z,21.73
2022-12-08T17:02:59.102Z,22.06
2022-12-08T17:05:26.840Z,21.91
2022-12-08T17:07:54.903Z,21.35
2022-12-08T17:10:25.519Z,21.62
2022-12-08T17:12:53.357Z,21.62
2022-12-08T17:15:23.033Z,23.04
2022-12-08T17:17:50.402Z,22.33
2022-12-08T17:20:23.005Z,22.28
2022-12-08T17:22:50.483Z,22.59
2022-12-08T17:25:17.675Z,22.13
2022-12-08T17:27:44.447Z,23.45
2022-12-08T17:30:15.555Z,22.36
2022-12-08T17:32:43.945Z,22.38
2022-12-08T17:35:11.787Z,21.96
2022-12-08T17:37:40.976Z,22.07
2022-12-08T17:40:08.616Z,22.56
2022-12-08T17:42:35.514Z,22.97
2022-12-08T17:45:03.172Z,25.07
2022-12-08T17:47:30.074Z,24.24
2022-12-08T17:49:57.365Z,22.57
2022-12-08T17:52:24.940Z,21.94
2022-12-08T17:54:51.726Z,23.71
2022-12-08T17:57:18.472Z,21.89
2022-12-08T17:59:45.286Z,21.92
2022-12-08T18:02:12.578Z,22.30
2022-12-08T18:04:40.047Z,22.06
2022-12-08T18:07:06.783Z,21.60
2022-12-08T18:09:34.130Z,26.54
2022-12-08T18:12:00.888Z,26.26
2022-12-08T18:14:28.541Z,23.67
2022-12-08T18:16:55.455Z,22.53
2022-12-08T18:19:22.672Z,22.77
2022-12-08T18:21:49.490Z,25.01
2022-12-08T18:24:19.603Z,24.08
2022-12-08T18:26:47.153Z,24.01
2022-12-08T18:29:14.760Z,23.99
2022-12-08T18:31:41.519Z,23.72
2022-12-08T18:34:08.365Z,22.82
2022-12-08T18:36:35.171Z,22.22
2022-12-08T18:39:07.192Z,22.33
2022-12-08T18:41:37.136Z,22.58
2022-12-08T18:44:03.989Z,21.65
2022-12-08T18:46:30.792Z,22.41
2022-12-08T18:48:58.127Z,22.80
2022-12-08T18:51:25.434Z,23.74
2022-12-08T18:53:53.142Z,23.73
2022-12-08T18:56:32.040Z,22.69
2022-12-08T18:59:03.835Z,23.64
2022-12-08T19:01:36.754Z,23.04
2022-12-08T19:06:54.208Z,22.76
2022-12-08T19:09:21.426Z,22.74
2022-12-08T19:11:48.775Z,24.14
2022-12-08T19:14:15.753Z,27.05
2022-12-08T19:16:42.663Z,27.02
2022-12-08T19:19:09.889Z,24.36
2022-12-08T19:21:44.548Z,23.35
2022-12-08T19:24:13.313Z,22.84
2022-12-08T19:26:40.783Z,22.66
2022-12-08T19:29:07.631Z,24.00
2022-12-08T19:31:35.143Z,22.79
2022-12-08T19:34:01.905Z,23.14
2022-12-08T19:36:35.473Z,26.95
2022-12-08T19:39:23.583Z,25.85
2022-12-08T19:42:09.410Z,23.05
2022-12-08T19:44:54.461Z,23.00
2022-12-08T19:47:24.456Z,22.97
2022-12-08T19:49:53.944Z,23.51
2022-12-08T19:52:21.093Z,26.05
2022-12-08T19:54:47.942Z,26.90
2022-12-08T19:57:16.310Z,24.38
2022-12-08T19:59:43.178Z,22.76
2022-12-08T20:02:11.357Z,24.12
2022-12-08T20:04:38.456Z,23.41
2022-12-08T20:07:05.719Z,23.48
2022-12-08T20:09:33.218Z,23.28
2022-12-08T20:12:02.004Z,23.63
2022-12-08T20:14:29.134Z,27.64
2022-12-08T20:16:56.555Z,24.15
2022-12-08T20:19:23.357Z,23.24
2022-12-08T20:21:50.274Z,25.25
2022-12-08T20:24:17.443Z,24.42
2022-12-08T20:26:45.159Z,24.54
2022-12-08T20:29:17.160Z,22.77
2022-12-08T20:31:45.619Z,22.09
2022-12-08T20:34:17.740Z,24.48
2022-12-08T20:36:46.768Z,22.43
2022-12-08T20:39:16.615Z,23.29
2022-12-08T20:41:45.628Z,23.05
2022-12-08T20:44:12.872Z,23.41
2022-12-08T20:46:41.781Z,23.04
2022-12-08T20:49:10.570Z,22.59
2022-12-08T20:51:37.301Z,23.02
2022-12-08T20:54:09.886Z,23.49
2022-12-08T20:56:36.795Z,23.01
2022-12-08T20:59:03.910Z,23.15
2022-12-08T21:01:32.147Z,23.95
2022-12-08T21:03:59.223Z,23.21
2022-12-08T21:06:28.209Z,23.59
2022-12-08T21:08:55.174Z,23.30
2022-12-08T21:11:22.200Z,23.16
2022-12-08T21:13:49.385Z,23.12
2022-12-08T21:16:17.398Z,23.06
2022-12-08T21:18:44.353Z,23.48
2022-12-08T21:21:14.316Z,24.04
2022-12-08T21:23:43.180Z,24.80
2022-12-08T21:26:19.083Z,24.36
2022-12-08T21:28:47.902Z,24.33
2022-12-08T21:31:19.398Z,23.31
2022-12-08T21:33:47.698Z,23.29
2022-12-08T21:36:17.753Z,27.06
2022-12-08T21:38:46.890Z,23.96
2022-12-08T21:41:37.961Z,24.12
2022-12-08T21:44:06.346Z,22.54
2022-12-08T21:46:33.287Z,22.28
2022-12-08T21:49:01.220Z,24.30
2022-12-08T21:51:28.651Z,23.26
2022-12-08T21:53:55.383Z,23.71
2022-12-08T21:56:22.813Z,26.77
2022-12-08T21:58:50.076Z,25.46
2022-12-08T22:01:17.612Z,22.74
2022-12-08T22:03:44.665Z,23.83
2022-12-08T22:06:13.841Z,23.15
2022-12-08T22:08:41.825Z,22.22
2022-12-08T22:11:11.381Z,23.27
2022-12-08T22:13:39.777Z,23.77
2022-12-08T22:16:09.462Z,23.88
2022-12-08T22:18:37.188Z,24.01
2022-12-08T22:21:17.136Z,23.20
2022-12-08T22:23:44.505Z,23.03
2022-12-08T22:26:12.643Z,24.96
2022-12-08T22:28:41.665Z,24.56
2022-12-08T22:31:15.081Z,23.15
2022-12-08T22:33:42.850Z,24.36
2022-12-08T22:36:19.784Z,22.82
2022-12-08T22:38:48.324Z,24.88
2022-12-08T22:41:17.245Z,22.88
2022-12-08T22:43:45.314Z,22.69
2022-12-08T22:46:18.142Z,22.58
2022-12-08T22:48:45.640Z,22.44
2022-12-08T22:51:14.244Z,25.54
2022-12-08T22:53:41.822Z,24.43
2022-12-08T22:56:11.791Z,25.67
2022-12-08T22:58:39.929Z,26.75
2022-12-08T23:01:08.465Z,24.54
2022-12-08T23:03:35.604Z,23.41
2022-12-08T23:06:13.034Z,23.17
2022-12-08T23:08:40.708Z,23.92
2022-12-08T23:11:07.854Z,22.21
2022-12-08T23:13:34.653Z,23.31
2022-12-08T23:16:02.737Z,22.58
2022-12-08T23:18:29.503Z,24.47
2022-12-08T23:20:56.264Z,25.25
2022-12-08T23:23:23.169Z,23.29
2022-12-08T23:25:49.965Z,23.47
2022-12-08T23:28:18.125Z,24.58
2022-12-08T23:30:44.964Z,23.60
2022-12-08T23:33:12.083Z,23.28
2022-12-08T23:35:39.823Z,24.95
2022-12-08T23:38:07.102Z,24.94
2022-12-08T23:40:34.266Z,27.41
2022-12-08T23:43:01.225Z,26.14
2022-12-08T23:45:29.747Z,24.14
2022-12-08T23:47:56.604Z,22.78
2022-12-08T23:50:23.999Z,24.63
2022-12-08T23:52:50.934Z,25.09
2022-12-08T23:55:18.909Z,27.71
2022-12-08T23:57:45.589Z,28.40
